createdAt,value
2023-04-16T00:02:49.260Z,8.21
2023-04-16T00:07:55.408Z,8.22
2023-04-16T00:13:01.394Z,8.21
2023-04-16T00:18:06.986Z,8.21
2023-04-16T00:23:12.630Z,8.16
2023-04-16T00:28:18.175Z,8.10
2023-04-16T00:33:24.056Z,8.09
2023-04-16T00:38:32.122Z,8.06
2023-04-16T00:43:37.725Z,7.99
2023-04-16T00:48:45.051Z,8.04
2023-04-16T00:53:51.135Z,8.02
2023-04-16T00:58:57.148Z,8.01
2023-04-16T01:04:03.040Z,7.97
2023-04-16T01:09:10.086Z,7.96
2023-04-16T01:14:15.958Z,7.94
2023-04-16T01:19:21.845Z,7.95
2023-04-16T01:24:27.709Z,7.94
2023-04-16T01:29:33.376Z,7.94
2023-04-16T01:34:39.249Z,7.94
2023-04-16T01:39:45.217Z,7.94
2023-04-16T01:44:51.035Z,7.96
2023-04-16T01:49:56.972Z,7.92
2023-04-16T01:55:03.298Z,7.96
2023-04-16T02:00:11.834Z,8.01
2023-04-16T02:05:17.961Z,8.01
2023-04-16T02:10:23.710Z,8.02
2023-04-16T02:15:29.604Z,8.05
2023-04-16T02:20:35.972Z,7.99
2023-04-16T02:25:43.242Z,7.95
2023-04-16T02:30:48.855Z,7.93
2023-04-16T02:35:54.569Z,7.91
2023-04-16T02:41:00.590Z,7.90
2023-04-16T02:46:06.324Z,7.88
2023-04-16T02:51:12.217Z,7.85
2023-04-16T02:56:17.872Z,7.81
2023-04-16T03:01:23.583Z,7.77
2023-04-16T03:06:29.360Z,7.73
2023-04-16T03:11:35.178Z,7.73
2023-04-16T03:16:41.095Z,7.69
2023-04-16T03:21:46.863Z,7.67
2023-04-16T03:26:52.513Z,7.63
2023-04-16T03:31:58.310Z,7.58
2023-04-16T03:37:05.657Z,7.48
2023-04-16T03:42:11.555Z,7.39
2023-04-16T03:47:17.407Z,7.37
2023-04-16T03:52:23.042Z,7.39
2023-04-16T03:57:28.650Z,7.40
2023-04-16T04:02:34.337Z,7.37
2023-04-16T04:07:40.392Z,7.37
2023-04-16T04:12:46.183Z,7.38
2023-04-16T04:17:52.168Z,7.40
2023-04-16T04:22:58.378Z,7.35
2023-04-16T04:28:04.361Z,7.30
2023-04-16T04:33:10.207Z,7.25
2023-04-16T04:38:19.515Z,7.23
2023-04-16T04:43:25.614Z,7.22
2023-04-16T04:48:31.413Z,7.22
2023-04-16T04:53:37.148Z,7.21
2023-04-16T04:58:43.150Z,7.23
2023-04-16T05:03:48.805Z,7.24
2023-04-16T05:08:54.510Z,7.30
2023-04-16T05:14:00.176Z,7.34
2023-04-16T05:19:06.076Z,7.42
2023-04-16T05:24:13.058Z,7.48
2023-04-16T05:29:21.548Z,7.51
2023-04-16T05:34:27.521Z,7.56
2023-04-16T05:39:33.171Z,7.61
2023-04-16T05:44:38.846Z,7.67
2023-04-16T05:49:44.480Z,7.72
2023-04-16T05:54:50.134Z,7.73
2023-04-16T05:59:55.961Z,7.80
2023-04-16T06:05:01.612Z,7.85
2023-04-16T06:10:10.031Z,7.96
2023-04-16T06:15:15.912Z,8.25
2023-04-16T06:20:21.808Z,8.22
2023-04-16T06:25:27.527Z,8.36
2023-04-16T06:30:33.813Z,8.50
2023-04-16T06:35:39.393Z,8.61
2023-04-16T06:40:45.264Z,8.78
2023-04-16T06:45:50.928Z,8.78
2023-04-16T06:50:59.240Z,8.79
2023-04-16T06:56:06.026Z,8.84
2023-04-16T07:01:11.977Z,8.99
2023-04-16T07:06:17.666Z,9.01
2023-04-16T07:11:23.366Z,9.04
2023-04-16T07:16:29.256Z,9.07
2023-04-16T07:21:34.950Z,9.10
2023-04-16T07:26:40.668Z,9.23
2023-04-16T07:31:47.282Z,9.41
2023-04-16T07:36:53.118Z,9.41
2023-04-16T07:41:58.794Z,9.54
2023-04-16T07:47:05.776Z,9.54
2023-04-16T07:52:12.018Z,9.46
2023-04-16T07:57:17.731Z,9.38
2023-04-16T08:02:23.628Z,9.36
2023-04-16T08:07:29.352Z,9.39
2023-04-16T08:12:35.388Z,9.47
2023-04-16T08:17:41.172Z,9.49
2023-04-16T08:22:48.284Z,9.65
2023-04-16T08:27:54.058Z,9.76
2023-04-16T08:32:59.915Z,9.90
2023-04-16T08:38:07.696Z,9.86
2023-04-16T08:43:16.409Z,9.75
2023-04-16T08:48:23.978Z,9.71
2023-04-16T08:53:41.236Z,9.68
2023-04-16T08:58:50.227Z,9.70
2023-04-16T09:03:57.353Z,9.62
2023-04-16T09:09:05.032Z,9.46
2023-04-16T09:14:12.326Z,9.22
2023-04-16T09:19:18.232Z,9.08
2023-04-16T09:24:24.686Z,9.00
2023-04-16T09:29:38.372Z,9.03
2023-04-16T09:35:01.397Z,9.01
2023-04-16T09:40:10.133Z,9.22
2023-04-16T09:45:15.879Z,9.27
2023-04-16T09:50:21.933Z,9.42
2023-04-16T09:55:29.777Z,9.66
2023-04-16T10:00:35.589Z,9.86
2023-04-16T10:05:49.066Z,10.11
2023-04-16T10:10:56.129Z,10.14
2023-04-16T10:16:03.500Z,10.05
2023-04-16T10:21:11.497Z,9.94
2023-04-16T10:26:19.661Z,9.95
2023-04-16T10:31:27.390Z,9.89
2023-04-16T10:36:37.926Z,9.85
2023-04-16T10:41:45.582Z,9.95
2023-04-16T10:46:51.518Z,9.98
2023-04-16T10:51:59.451Z,9.98
2023-04-16T10:57:08.671Z,10.05
2023-04-16T11:02:17.758Z,10.13
2023-04-16T11:07:34.704Z,10.08
2023-04-16T11:12:42.512Z,10.09
2023-04-16T11:17:51.569Z,10.07
2023-04-16T11:22:58.602Z,9.99
2023-04-16T11:28:04.994Z,9.98
2023-04-16T11:33:12.495Z,9.84
2023-04-16T11:38:20.927Z,9.75
2023-04-16T11:43:27.934Z,9.71
2023-04-16T11:48:51.856Z,9.69
2023-04-16T11:53:58.324Z,9.68
2023-04-16T11:59:16.186Z,9.78
2023-04-16T12:04:26.420Z,9.90
2023-04-16T12:09:32.444Z,9.94
2023-04-16T12:14:38.384Z,9.86
2023-04-16T12:19:52.534Z,9.82
2023-04-16T12:25:05.696Z,9.69
2023-04-16T12:30:14.214Z,9.62
2023-04-16T12:35:33.555Z,9.64
2023-04-16T12:40:39.310Z,9.56
2023-04-16T12:45:44.956Z,9.53
2023-04-16T12:50:53.511Z,9.53
2023-04-16T12:55:59.630Z,9.60
2023-04-16T13:01:05.579Z,9.67
2023-04-16T13:06:11.988Z,9.80
2023-04-16T13:11:19.218Z,9.88
2023-04-16T13:16:25.760Z,9.95
2023-04-16T13:21:31.706Z,9.94
2023-04-16T13:26:37.492Z,9.95
2023-04-16T13:31:43.205Z,9.96
2023-04-16T13:36:49.069Z,10.04
2023-04-16T13:41:54.881Z,10.03
2023-04-16T13:47:01.027Z,10.12
2023-04-16T13:52:07.136Z,10.18
2023-04-16T13:57:13.440Z,10.21
2023-04-16T14:02:19.159Z,10.21
2023-04-16T14:07:26.682Z,10.36
2023-04-16T14:12:32.829Z,10.46
2023-04-16T14:17:38.922Z,10.51
2023-04-16T14:22:46.236Z,10.63
2023-04-16T14:27:51.926Z,10.81
2023-04-16T14:32:57.822Z,11.02
2023-04-16T14:38:03.583Z,11.08
2023-04-16T14:43:09.404Z,11.13
2023-04-16T14:48:15.120Z,11.22
2023-04-16T14:53:21.054Z,11.19
2023-04-16T14:58:28.153Z,11.04
2023-04-16T15:03:34.254Z,10.78
2023-04-16T15:08:40.096Z,10.60
2023-04-16T15:13:45.815Z,10.41
2023-04-16T15:18:51.776Z,10.23
2023-04-16T15:23:57.681Z,10.17
2023-04-16T15:29:03.823Z,10.16
2023-04-16T15:34:09.883Z,10.09
2023-04-16T15:39:15.673Z,9.99
2023-04-16T15:44:21.680Z,9.98
2023-04-16T15:49:27.898Z,9.95
2023-04-16T15:54:33.865Z,9.96
2023-04-16T15:59:39.943Z,9.86
2023-04-16T16:04:46.103Z,9.84
2023-04-16T16:09:52.700Z,9.89
2023-04-16T16:14:58.838Z,9.89
2023-04-16T16:20:09.871Z,9.88
2023-04-16T16:25:16.192Z,9.87
2023-04-16T16:30:22.106Z,9.82
2023-04-16T16:35:27.881Z,9.79
2023-04-16T16:40:33.991Z,9.79
2023-04-16T16:45:39.832Z,9.81
2023-04-16T16:50:45.529Z,9.78
2023-04-16T16:55:51.217Z,9.69
2023-04-16T17:00:57.032Z,9.63
2023-04-16T17:06:02.894Z,9.61
2023-04-16T17:11:08.631Z,9.58
2023-04-16T17:16:16.434Z,9.61
2023-04-16T17:21:22.299Z,9.57
2023-04-16T17:26:28.132Z,9.51
2023-04-16T17:31:33.996Z,9.46
2023-04-16T17:36:40.116Z,9.46
2023-04-16T17:41:46.173Z,9.42
2023-04-16T17:46:51.891Z,9.43
2023-04-16T17:51:57.767Z,9.45
2023-04-16T17:57:03.569Z,9.45
2023-04-16T18:02:09.874Z,9.46
2023-04-16T18:07:16.197Z,9.45
2023-04-16T18:12:22.045Z,9.45
2023-04-16T18:17:28.559Z,9.42
2023-04-16T18:22:34.433Z,9.40
2023-04-16T18:27:40.443Z,9.40
2023-04-16T18:33:04.279Z,9.37
2023-04-16T18:38:13.220Z,9.38
2023-04-16T18:43:18.985Z,9.38
2023-04-16T18:48:25.035Z,9.35
2023-04-16T18:53:31.071Z,9.38
2023-04-16T18:58:36.885Z,9.36
2023-04-16T19:03:42.837Z,9.31
2023-04-16T19:08:48.564Z,9.28
2023-04-16T19:13:54.484Z,9.24
2023-04-16T19:19:00.497Z,9.24
2023-04-16T19:24:07.484Z,9.26
2023-04-16T19:29:13.176Z,9.27
2023-04-16T19:34:18.866Z,9.20
2023-04-16T19:39:27.718Z,9.15
2023-04-16T19:44:33.413Z,9.12
2023-04-16T19:49:39.329Z,9.13
2023-04-16T19:54:45.008Z,9.15
2023-04-16T19:59:50.762Z,9.12
2023-04-16T20:04:56.753Z,9.12
2023-04-16T20:10:03.191Z,9.12
2023-04-16T20:15:11.713Z,9.11
2023-04-16T20:20:17.641Z,9.08
2023-04-16T20:25:25.914Z,9.03
2023-04-16T20:30:38.243Z,8.98
2023-04-16T20:35:43.898Z,8.94
2023-04-16T20:40:57.727Z,8.89
2023-04-16T20:46:03.606Z,8.81
2023-04-16T20:51:09.832Z,8.76
2023-04-16T20:56:15.685Z,8.75
2023-04-16T21:01:21.410Z,8.76
2023-04-16T21:06:27.634Z,8.70
2023-04-16T21:11:34.692Z,8.65
2023-04-16T21:16:40.440Z,8.62
2023-04-16T21:21:46.230Z,8.63
2023-04-16T21:26:51.954Z,8.66
2023-04-16T21:31:57.743Z,8.65
2023-04-16T21:37:03.576Z,8.62
2023-04-16T21:42:09.425Z,8.61
2023-04-16T21:47:15.729Z,8.62
2023-04-16T21:52:21.644Z,8.64
2023-04-16T21:57:27.209Z,8.66
2023-04-16T22:02:33.684Z,8.61
2023-04-16T22:07:39.498Z,8.62
2023-04-16T22:12:46.162Z,8.59
2023-04-16T22:17:51.801Z,8.63
2023-04-16T22:22:58.333Z,8.65
2023-04-16T22:28:04.276Z,8.64
2023-04-16T22:33:09.959Z,8.62
2023-04-16T22:38:16.736Z,8.58
2023-04-16T22:43:22.255Z,8.58
2023-04-16T22:48:27.948Z,8.57
2023-04-16T22:53:34.014Z,8.56
2023-04-16T22:58:40.050Z,8.54
2023-04-16T23:03:45.989Z,8.53
2023-04-16T23:08:51.626Z,8.52
2023-04-16T23:13:58.406Z,8.51
2023-04-16T23:19:04.490Z,8.48
2023-04-16T23:24:10.502Z,8.45
2023-04-16T23:29:16.350Z,8.46
2023-04-16T23:34:22.010Z,8.43
2023-04-16T23:39:27.638Z,8.45
2023-04-16T23:44:33.174Z,8.51
2023-04-16T23:49:38.800Z,8.55
2023-04-16T23:54:44.648Z,8.54
2023-04-16T23:59:50.452Z,8.55
